Terminal Aerodrome Forecast
Issued by NWS Twin Cities, MN

Home | Current Version | Previous Version | Graphics & Text | Print | Product List | Glossary On
Versions: 1 2 3 4 5 6 7 8 9 10 11 12 13 14 15
000
FTUS43 KMPX 272005 AAA
TAFSTC
TAF AMD
KSTC 272005Z 2720/2818 17011KT P6SM SCT050 BKN250
     FM280400 12005KT P6SM SCT040 BKN100
     FM281100 10003KT 6SM BR VCSH SCT007 OVC020=

USA.gov is the U.S. government's official web portal to all federal, state and local government web resources and services.